Isle of Iona, United Kingdom
Current Conditions -  °F | °C
As of 4:50 PM on Thursday 30 Oct 2014 (Local Time) from EGPU Reporting Station
Broken Clouds Broken Clouds  
Wind Chill: 57°   Ceiling: 2600
Heat Index: 57°   Visibility: 6mi
Dew Point: 55°   Wind: 20mph
Humidity: 94%   Direction: 160°SSE
Pressure: 29.74"   Gusts: NA
Location:  56.33°N, 6.39°W
Report Text: EGPU 301650Z AUTO 16017KT 9999 SCT019/// BKN026/// 14/13 Q1007
Loading
Personal Weather Stations






























Interactive Weather Map
Tropical Storm Tracking
New forecast layout! Learn more

10-Day Weather Forecast

Advertisements
Track Severe Weather on mobile